sensor_id;sensor_type;location;lat;lon;timestamp;pressure;altitude;pressure_sealevel;temperature;humidity
29169;BME280;16219;42.864;23.360;2023-02-11T00:02:21;97600.81;;;-5.86;100.00
29169;BME280;16219;42.864;23.360;2023-02-11T00:04:52;97594.91;;;-5.95;100.00
29169;BME280;16219;42.864;23.360;2023-02-11T00:07:19;97589.63;;;-5.93;100.00
29169;BME280;16219;42.864;23.360;2023-02-11T00:09:46;97595.72;;;-6.02;100.00
29169;BME280;16219;42.864;23.360;2023-02-11T00:12:13;97589.63;;;-6.01;100.00
29169;BME280;16219;42.864;23.360;2023-02-11T00:14:40;97591.03;;;-5.99;100.00
29169;BME280;16219;42.864;23.360;2023-02-11T00:17:07;97594.94;;;-6.03;100.00
29169;BME280;16219;42.864;23.360;2023-02-11T00:19:35;97584.47;;;-6.01;100.00
29169;BME280;16219;42.864;23.360;2023-02-11T00:22:02;97599.88;;;-6.01;100.00
29169;BME280;16219;42.864;23.360;2023-02-11T00:24:29;97605.03;;;-6.01;100.00
29169;BME280;16219;42.864;23.360;2023-02-11T00:26:56;97599.56;;;-6.07;100.00
29169;BME280;16219;42.864;23.360;2023-02-11T00:29:24;97590.59;;;-6.11;100.00
29169;BME280;16219;42.864;23.360;2023-02-11T00:31:51;97595.41;;;-6.16;100.00
29169;BME280;16219;42.864;23.360;2023-02-11T00:34:18;97603.56;;;-6.20;100.00
29169;BME280;16219;42.864;23.360;2023-02-11T00:36:46;97600.84;;;-6.27;100.00
29169;BME280;16219;42.864;23.360;2023-02-11T00:39:14;97593.41;;;-6.46;100.00
29169;BME280;16219;42.864;23.360;2023-02-11T00:41:41;97595.06;;;-6.45;100.00
29169;BME280;16219;42.864;23.360;2023-02-11T00:44:08;97594.91;;;-6.36;100.00
29169;BME280;16219;42.864;23.360;2023-02-11T00:46:34;97591.53;;;-6.36;100.00
29169;BME280;16219;42.864;23.360;2023-02-11T00:49:01;97592.16;;;-6.42;100.00
29169;BME280;16219;42.864;23.360;2023-02-11T00:51:28;97583.66;;;-6.43;100.00
29169;BME280;16219;42.864;23.360;2023-02-11T00:53:57;97587.97;;;-6.43;100.00
29169;BME280;16219;42.864;23.360;2023-02-11T00:56:24;97590.06;;;-6.47;100.00
29169;BME280;16219;42.864;23.360;2023-02-11T00:58:51;97587.50;;;-6.47;100.00
29169;BME280;16219;42.864;23.360;2023-02-11T01:01:19;97560.97;;;-6.72;100.00
29169;BME280;16219;42.864;23.360;2023-02-11T01:03:46;97594.88;;;-6.52;100.00
29169;BME280;16219;42.864;23.360;2023-02-11T01:06:14;97589.25;;;-6.56;100.00
29169;BME280;16219;42.864;23.360;2023-02-11T01:08:41;97585.25;;;-6.58;100.00
29169;BME280;16219;42.864;23.360;2023-02-11T01:11:13;97594.34;;;-6.64;100.00
29169;BME280;16219;42.864;23.360;2023-02-11T01:13:44;97595.63;;;-6.68;100.00
29169;BME280;16219;42.864;23.360;2023-02-11T01:16:11;97598.53;;;-6.71;100.00
29169;BME280;16219;42.864;23.360;2023-02-11T01:18:39;97591.13;;;-6.74;100.00
29169;BME280;16219;42.864;23.360;2023-02-11T01:21:08;97579.56;;;-6.78;100.00
29169;BME280;16219;42.864;23.360;2023-02-11T01:23:35;97587.09;;;-6.76;100.00
29169;BME280;16219;42.864;23.360;2023-02-11T01:26:03;97575.53;;;-6.89;100.00
29169;BME280;16219;42.864;23.360;2023-02-11T01:28:32;97589.16;;;-6.88;100.00
29169;BME280;16219;42.864;23.360;2023-02-11T01:30:59;97583.84;;;-6.95;100.00
29169;BME280;16219;42.864;23.360;2023-02-11T01:33:27;97576.97;;;-6.86;100.00
29169;BME280;16219;42.864;23.360;2023-02-11T01:35:54;97577.28;;;-6.89;100.00
29169;BME280;16219;42.864;23.360;2023-02-11T01:38:23;97568.97;;;-6.91;100.00
29169;BME280;16219;42.864;23.360;2023-02-11T01:40:54;97570.22;;;-6.95;100.00
29169;BME280;16219;42.864;23.360;2023-02-11T01:43:22;97566.06;;;-6.96;100.00
29169;BME280;16219;42.864;23.360;2023-02-11T01:48:53;97575.81;;;-7.00;100.00
29169;BME280;16219;42.864;23.360;2023-02-11T01:51:24;97565.66;;;-7.10;100.00
29169;BME280;16219;42.864;23.360;2023-02-11T01:53:53;97569.56;;;-6.97;100.00
29169;BME280;16219;42.864;23.360;2023-02-11T01:56:41;97573.41;;;-7.01;100.00
29169;BME280;16219;42.864;23.360;2023-02-11T01:59:31;97571.56;;;-7.25;100.00
29169;BME280;16219;42.864;23.360;2023-02-11T02:02:04;97576.81;;;-7.27;100.00
29169;BME280;16219;42.864;23.360;2023-02-11T02:04:35;97573.97;;;-7.24;100.00
29169;BME280;16219;42.864;23.360;2023-02-11T02:07:07;97575.56;;;-7.23;100.00
29169;BME280;16219;42.864;23.360;2023-02-11T02:09:39;97574.31;;;-7.19;100.00
29169;BME280;16219;42.864;23.360;2023-02-11T02:12:07;97573.34;;;-7.18;100.00
29169;BME280;16219;42.864;23.360;2023-02-11T02:14:37;97575.25;;;-7.20;100.00
29169;BME280;16219;42.864;23.360;2023-02-11T02:17:06;97574.47;;;-7.20;100.00
29169;BME280;16219;42.864;23.360;2023-02-11T02:34:37;97565.34;;;-7.49;100.00
29169;BME280;16219;42.864;23.360;2023-02-11T02:37:11;97567.38;;;-7.61;100.00
29169;BME280;16219;42.864;23.360;2023-02-11T02:39:42;97578.88;;;-7.65;100.00
29169;BME280;16219;42.864;23.360;2023-02-11T02:42:12;97584.00;;;-7.65;100.00
29169;BME280;16219;42.864;23.360;2023-02-11T02:44:39;97577.31;;;-7.58;100.00
29169;BME280;16219;42.864;23.360;2023-02-11T02:47:06;97573.84;;;-7.48;100.00
29169;BME280;16219;42.864;23.360;2023-02-11T02:49:35;97575.09;;;-7.52;100.00
29169;BME280;16219;42.864;23.360;2023-02-11T02:52:13;97571.91;;;-7.55;100.00
29169;BME280;16219;42.864;23.360;2023-02-11T02:55:05;97572.41;;;-7.51;100.00
29169;BME280;16219;42.864;23.360;2023-02-11T02:57:38;97568.19;;;-7.60;100.00
29169;BME280;16219;42.864;23.360;2023-02-11T03:00:16;97562.88;;;-7.67;100.00
29169;BME280;16219;42.864;23.360;2023-02-11T03:03:03;97559.34;;;-7.66;100.00
29169;BME280;16219;42.864;23.360;2023-02-11T03:05:43;97562.88;;;-7.67;100.00
29169;BME280;16219;42.864;23.360;2023-02-11T03:08:16;97569.00;;;-7.60;100.00
29169;BME280;16219;42.864;23.360;2023-02-11T03:10:46;97562.91;;;-7.59;100.00
29169;BME280;16219;42.864;23.360;2023-02-11T03:13:17;97562.25;;;-7.61;100.00
29169;BME280;16219;42.864;23.360;2023-02-11T03:15:48;97567.69;;;-7.64;100.00
29169;BME280;16219;42.864;23.360;2023-02-11T03:18:19;97570.19;;;-7.72;100.00
29169;BME280;16219;42.864;23.360;2023-02-11T03:20:50;97574.03;;;-7.76;100.00
29169;BME280;16219;42.864;23.360;2023-02-11T03:23:23;97564.34;;;-7.82;100.00
29169;BME280;16219;42.864;23.360;2023-02-11T03:25:58;97567.25;;;-7.85;100.00
29169;BME280;16219;42.864;23.360;2023-02-11T03:28:30;97572.00;;;-7.90;100.00
29169;BME280;16219;42.864;23.360;2023-02-11T03:31:07;97566.53;;;-7.95;100.00
29169;BME280;16219;42.864;23.360;2023-02-11T03:33:39;97555.91;;;-8.00;100.00
29169;BME280;16219;42.864;23.360;2023-02-11T03:36:12;97561.34;;;-8.03;100.00
29169;BME280;16219;42.864;23.360;2023-02-11T03:38:46;97576.22;;;-8.25;100.00
29169;BME280;16219;42.864;23.360;2023-02-11T03:41:16;97571.16;;;-8.17;100.00
29169;BME280;16219;42.864;23.360;2023-02-11T03:43:48;97575.03;;;-8.13;100.00
29169;BME280;16219;42.864;23.360;2023-02-11T03:46:18;97574.06;;;-8.12;100.00
29169;BME280;16219;42.864;23.360;2023-02-11T03:48:48;97566.56;;;-8.13;100.00
29169;BME280;16219;42.864;23.360;2023-02-11T03:51:19;97561.44;;;-8.13;100.00
29169;BME280;16219;42.864;23.360;2023-02-11T03:53:50;97573.50;;;-8.06;100.00
29169;BME280;16219;42.864;23.360;2023-02-11T03:56:21;97566.84;;;-8.16;100.00
29169;BME280;16219;42.864;23.360;2023-02-11T03:58:50;97576.28;;;-8.17;100.00
29169;BME280;16219;42.864;23.360;2023-02-11T04:01:17;97576.28;;;-8.17;100.00
29169;BME280;16219;42.864;23.360;2023-02-11T04:03:44;97573.88;;;-8.18;100.00
29169;BME280;16219;42.864;23.360;2023-02-11T04:06:10;97574.97;;;-8.21;100.00
29169;BME280;16219;42.864;23.360;2023-02-11T04:08:39;97570.47;;;-8.27;100.00
29169;BME280;16219;42.864;23.360;2023-02-11T04:11:06;97577.69;;;-8.22;100.00
29169;BME280;16219;42.864;23.360;2023-02-11T04:13:33;97571.16;;;-8.17;100.00
29169;BME280;16219;42.864;23.360;2023-02-11T04:15:59;97572.75;;;-8.16;100.00
29169;BME280;16219;42.864;23.360;2023-02-11T04:18:26;97564.72;;;-8.21;100.00
29169;BME280;16219;42.864;23.360;2023-02-11T04:20:53;97563.91;;;-8.47;100.00
29169;BME280;16219;42.864;23.360;2023-02-11T04:23:20;97549.16;;;-8.53;100.00
29169;BME280;16219;42.864;23.360;2023-02-11T04:25:49;97560.94;;;-8.35;100.00
29169;BME280;16219;42.864;23.360;2023-02-11T04:28:16;97568.19;;;-8.30;100.00
29169;BME280;16219;42.864;23.360;2023-02-11T04:30:43;97561.97;;;-8.27;100.00
29169;BME280;16219;42.864;23.360;2023-02-11T04:33:10;97552.47;;;-8.35;100.00
29169;BME280;16219;42.864;23.360;2023-02-11T04:35:37;97557.25;;;-8.40;100.00
29169;BME280;16219;42.864;23.360;2023-02-11T04:38:04;97559.16;;;-8.42;100.00
29169;BME280;16219;42.864;23.360;2023-02-11T04:40:31;97559.31;;;-8.44;100.00
29169;BME280;16219;42.864;23.360;2023-02-11T04:42:59;97555.94;;;-8.44;100.00
29169;BME280;16219;42.864;23.360;2023-02-11T04:45:26;97551.75;;;-8.45;100.00
29169;BME280;16219;42.864;23.360;2023-02-11T04:47:53;97556.16;;;-8.38;100.00
29169;BME280;16219;42.864;23.360;2023-02-11T04:50:19;97552.78;;;-8.38;100.00
29169;BME280;16219;42.864;23.360;2023-02-11T04:52:47;97552.00;;;-8.57;100.00
29169;BME280;16219;42.864;23.360;2023-02-11T04:55:13;97553.66;;;-8.47;100.00
29169;BME280;16219;42.864;23.360;2023-02-11T04:57:40;97557.31;;;-8.50;100.00
29169;BME280;16219;42.864;23.360;2023-02-11T05:00:10;97557.91;;;-8.56;100.00
29169;BME280;16219;42.864;23.360;2023-02-11T05:02:37;97561.28;;;-8.56;100.00
29169;BME280;16219;42.864;23.360;2023-02-11T05:05:04;97542.66;;;-8.66;100.00
29169;BME280;16219;42.864;23.360;2023-02-11T05:07:31;97565.06;;;-8.60;100.00
29169;BME280;16219;42.864;23.360;2023-02-11T05:09:58;97557.84;;;-8.64;100.00
29169;BME280;16219;42.864;23.360;2023-02-11T05:12:25;97552.56;;;-8.63;100.00
29169;BME280;16219;42.864;23.360;2023-02-11T05:14:52;97553.16;;;-8.69;100.00
29169;BME280;16219;42.864;23.360;2023-02-11T05:17:20;97544.91;;;-8.63;100.00
29169;BME280;16219;42.864;23.360;2023-02-11T05:19:47;97542.50;;;-8.64;100.00
29169;BME280;16219;42.864;23.360;2023-02-11T05:22:14;97545.22;;;-8.66;100.00
29169;BME280;16219;42.864;23.360;2023-02-11T05:24:41;97549.53;;;-8.66;100.00
29169;BME280;16219;42.864;23.360;2023-02-11T05:27:08;97552.56;;;-8.63;100.00
29169;BME280;16219;42.864;23.360;2023-02-11T05:29:35;97550.97;;;-8.64;100.00
29169;BME280;16219;42.864;23.360;2023-02-11T05:32:02;97557.84;;;-8.64;100.00
29169;BME280;16219;42.864;23.360;2023-02-11T05:34:31;97563.69;;;-8.72;100.00
29169;BME280;16219;42.864;23.360;2023-02-11T05:36:58;97551.16;;;-8.75;100.00
29169;BME280;16219;42.864;23.360;2023-02-11T05:39:25;97562.06;;;-8.73;100.00
29169;BME280;16219;42.864;23.360;2023-02-11T05:41:52;97565.94;;;-8.69;100.00
29169;BME280;16219;42.864;23.360;2023-02-11T05:44:19;97561.63;;;-8.68;100.00
29169;BME280;16219;42.864;23.360;2023-02-11T05:46:46;97563.63;;;-8.62;100.00
29169;BME280;16219;42.864;23.360;2023-02-11T05:49:13;97570.78;;;-8.66;100.00
29169;BME280;16219;42.864;23.360;2023-02-11T05:51:43;97563.47;;;-8.61;100.00
29169;BME280;16219;42.864;23.360;2023-02-11T05:54:10;97556.28;;;-8.75;100.00
29169;BME280;16219;42.864;23.360;2023-02-11T05:56:37;97562.81;;;-8.63;100.00
29169;BME280;16219;42.864;23.360;2023-02-11T05:59:04;97563.75;;;-8.64;100.00
29169;BME280;16219;42.864;23.360;2023-02-11T06:01:31;97564.63;;;-8.73;100.00
29169;BME280;16219;42.864;23.360;2023-02-11T06:03:58;97567.28;;;-8.65;100.00
29169;BME280;16219;42.864;23.360;2023-02-11T06:06:25;97565.00;;;-8.68;100.00
29169;BME280;16219;42.864;23.360;2023-02-11T06:08:53;97567.44;;;-8.66;100.00
29169;BME280;16219;42.864;23.360;2023-02-11T06:11:21;97547.75;;;-8.66;100.00
29169;BME280;16219;42.864;23.360;2023-02-11T06:13:47;97565.81;;;-8.49;100.00
29169;BME280;16219;42.864;23.360;2023-02-11T06:16:15;97565.81;;;-8.49;100.00
29169;BME280;16219;42.864;23.360;2023-02-11T06:18:42;97569.97;;;-8.48;100.00
29169;BME280;16219;42.864;23.360;2023-02-11T06:21:09;97568.75;;;-8.44;100.00
29169;BME280;16219;42.864;23.360;2023-02-11T06:23:37;97569.44;;;-8.34;100.00
29169;BME280;16219;42.864;23.360;2023-02-11T06:26:07;97572.56;;;-8.22;100.00
29169;BME280;16219;42.864;23.360;2023-02-11T06:28:35;97571.44;;;-8.20;100.00
29169;BME280;16219;42.864;23.360;2023-02-11T06:31:04;97573.44;;;-8.14;100.00
29169;BME280;16219;42.864;23.360;2023-02-11T06:33:32;97573.34;;;-8.04;100.00
29169;BME280;16219;42.864;23.360;2023-02-11T06:35:59;97571.06;;;-7.89;100.00
29169;BME280;16219;42.864;23.360;2023-02-11T06:38:26;97569.53;;;-7.74;100.00
29169;BME280;16219;42.864;23.360;2023-02-11T06:40:53;97578.34;;;-7.76;100.00
29169;BME280;16219;42.864;23.360;2023-02-11T06:43:22;97571.50;;;-7.68;100.00
29169;BME280;16219;42.864;23.360;2023-02-11T06:45:52;97571.56;;;-7.60;100.00
29169;BME280;16219;42.864;23.360;2023-02-11T06:48:20;97574.13;;;-7.60;100.00
29169;BME280;16219;42.864;23.360;2023-02-11T06:50:47;97570.94;;;-7.53;100.00
29169;BME280;16219;42.864;23.360;2023-02-11T06:53:14;97569.03;;;-7.51;100.00
29169;BME280;16219;42.864;23.360;2023-02-11T06:55:41;97568.59;;;-7.47;100.00
29169;BME280;16219;42.864;23.360;2023-02-11T06:58:08;97561.69;;;-7.46;100.00
29169;BME280;16219;42.864;23.360;2023-02-11T07:00:37;97559.81;;;-7.36;100.00
29169;BME280;16219;42.864;23.360;2023-02-11T07:03:04;97555.97;;;-7.32;100.00
29169;BME280;16219;42.864;23.360;2023-02-11T07:05:31;97556.94;;;-7.33;100.00
29169;BME280;16219;42.864;23.360;2023-02-11T07:07:59;97554.38;;;-7.33;100.00
29169;BME280;16219;42.864;23.360;2023-02-11T07:10:26;97561.22;;;-7.08;100.00
29169;BME280;16219;42.864;23.360;2023-02-11T07:12:53;97552.38;;;-7.05;100.00
29169;BME280;16219;42.864;23.360;2023-02-11T07:15:20;97556.41;;;-7.02;100.00
29169;BME280;16219;42.864;23.360;2023-02-11T07:17:49;97552.59;;;-6.90;100.00
29169;BME280;16219;42.864;23.360;2023-02-11T07:20:16;97551.19;;;-6.76;100.00
29169;BME280;16219;42.864;23.360;2023-02-11T07:22:43;97552.78;;;-6.75;100.00
29169;BME280;16219;42.864;23.360;2023-02-11T07:25:10;97547.66;;;-6.75;100.00
29169;BME280;16219;42.864;23.360;2023-02-11T07:27:37;97539.50;;;-6.71;100.00
29169;BME280;16219;42.864;23.360;2023-02-11T07:30:05;97521.38;;;-6.69;100.00
29169;BME280;16219;42.864;23.360;2023-02-11T07:32:32;97531.00;;;-6.47;100.00
29169;BME280;16219;42.864;23.360;2023-02-11T07:35:01;97537.75;;;-6.30;100.00
29169;BME280;16219;42.864;23.360;2023-02-11T07:37:28;97537.44;;;-6.26;100.00
29169;BME280;16219;42.864;23.360;2023-02-11T07:39:55;97540.63;;;-6.24;100.00
29169;BME280;16219;42.864;23.360;2023-02-11T07:42:22;97535.34;;;-6.15;100.00
29169;BME280;16219;42.864;23.360;2023-02-11T07:44:49;97529.72;;;-6.02;100.00
29169;BME280;16219;42.864;23.360;2023-02-11T07:47:17;97530.13;;;-5.82;100.00
29169;BME280;16219;42.864;23.360;2023-02-11T07:49:44;97521.91;;;-5.69;100.00
29169;BME280;16219;42.864;23.360;2023-02-11T07:52:13;97517.09;;;-5.64;100.00
29169;BME280;16219;42.864;23.360;2023-02-11T07:54:40;97517.84;;;-5.47;100.00
29169;BME280;16219;42.864;23.360;2023-02-11T07:57:07;97508.75;;;-5.27;100.00
29169;BME280;16219;42.864;23.360;2023-02-11T07:59:34;97507.88;;;-5.11;100.00
29169;BME280;16219;42.864;23.360;2023-02-11T08:02:02;97510.88;;;-4.99;100.00
29169;BME280;16219;42.864;23.360;2023-02-11T08:04:29;97513.50;;;-4.85;100.00
29169;BME280;16219;42.864;23.360;2023-02-11T08:06:56;97501.63;;;-4.63;100.00
29169;BME280;16219;42.864;23.360;2023-02-11T08:09:25;97506.66;;;-4.46;100.00
29169;BME280;16219;42.864;23.360;2023-02-11T08:11:52;97508.31;;;-4.54;100.00
29169;BME280;16219;42.864;23.360;2023-02-11T08:14:19;97503.13;;;-4.45;100.00
29169;BME280;16219;42.864;23.360;2023-02-11T08:16:46;97499.97;;;-4.18;100.00
29169;BME280;16219;42.864;23.360;2023-02-11T08:19:15;97503.19;;;-4.16;100.00
29169;BME280;16219;42.864;23.360;2023-02-11T08:21:42;97501.34;;;-4.07;100.00
29169;BME280;16219;42.864;23.360;2023-02-11T08:24:10;97501.78;;;-4.04;100.00
29169;BME280;16219;42.864;23.360;2023-02-11T08:26:39;97494.69;;;-4.02;100.00
29169;BME280;16219;42.864;23.360;2023-02-11T08:29:07;97489.72;;;-3.88;100.00
29169;BME280;16219;42.864;23.360;2023-02-11T08:31:36;97486.25;;;-3.66;100.00
29169;BME280;16219;42.864;23.360;2023-02-11T08:34:04;97499.50;;;-3.54;100.00
29169;BME280;16219;42.864;23.360;2023-02-11T08:36:33;97490.09;;;-3.47;100.00
29169;BME280;16219;42.864;23.360;2023-02-11T08:39:04;97485.53;;;-3.30;100.00
29169;BME280;16219;42.864;23.360;2023-02-11T08:41:32;97480.63;;;-3.25;100.00
29169;BME280;16219;42.864;23.360;2023-02-11T08:44:01;97473.03;;;-3.12;100.00
29169;BME280;16219;42.864;23.360;2023-02-11T08:46:29;97489.09;;;-2.95;98.55
29169;BME280;16219;42.864;23.360;2023-02-11T08:48:56;97487.31;;;-2.94;97.64
29169;BME280;16219;42.864;23.360;2023-02-11T08:51:25;97481.91;;;-2.78;96.84
29169;BME280;16219;42.864;23.360;2023-02-11T08:53:54;97481.31;;;-2.59;97.15
29169;BME280;16219;42.864;23.360;2023-02-11T08:56:21;97482.91;;;-2.36;97.24
29169;BME280;16219;42.864;23.360;2023-02-11T08:58:49;97460.09;;;-2.26;93.58
29169;BME280;16219;42.864;23.360;2023-02-11T09:01:20;97476.13;;;-2.09;89.62
29169;BME280;16219;42.864;23.360;2023-02-11T09:03:47;97473.25;;;-1.99;93.72
29169;BME280;16219;42.864;23.360;2023-02-11T09:06:14;97474.91;;;-1.85;90.88
29169;BME280;16219;42.864;23.360;2023-02-11T09:08:44;97442.88;;;-1.84;87.58
29169;BME280;16219;42.864;23.360;2023-02-11T09:11:12;97455.72;;;-1.63;85.87
29169;BME280;16219;42.864;23.360;2023-02-11T09:13:40;97467.56;;;-1.40;82.44
29169;BME280;16219;42.864;23.360;2023-02-11T09:16:07;97464.81;;;-1.32;79.72
29169;BME280;16219;42.864;23.360;2023-02-11T09:18:36;97461.09;;;-1.23;77.17
29169;BME280;16219;42.864;23.360;2023-02-11T09:21:04;97455.53;;;-1.13;75.59
29169;BME280;16219;42.864;23.360;2023-02-11T09:23:32;97457.34;;;-1.14;77.96
29169;BME280;16219;42.864;23.360;2023-02-11T09:25:59;97451.00;;;-1.05;78.93
29169;BME280;16219;42.864;23.360;2023-02-11T09:28:26;97450.81;;;-0.96;78.64
29169;BME280;16219;42.864;23.360;2023-02-11T09:30:54;97451.41;;;-0.81;76.08
29169;BME280;16219;42.864;23.360;2023-02-11T09:33:21;97440.28;;;-0.68;77.84
29169;BME280;16219;42.864;23.360;2023-02-11T09:35:49;97438.31;;;-0.53;84.00
29169;BME280;16219;42.864;23.360;2023-02-11T09:38:17;97424.94;;;-0.30;85.45
29169;BME280;16219;42.864;23.360;2023-02-11T09:40:44;97432.91;;;-0.12;83.37
29169;BME280;16219;42.864;23.360;2023-02-11T09:43:16;97416.75;;;-0.14;83.00
29169;BME280;16219;42.864;23.360;2023-02-11T09:45:45;97424.91;;;0.03;82.70
29169;BME280;16219;42.864;23.360;2023-02-11T09:48:14;97414.53;;;0.10;85.66
29169;BME280;16219;42.864;23.360;2023-02-11T09:50:46;97411.28;;;0.21;88.28
29169;BME280;16219;42.864;23.360;2023-02-11T09:53:19;97402.53;;;0.15;86.91
29169;BME280;16219;42.864;23.360;2023-02-11T09:55:52;97388.50;;;0.30;86.05
29169;BME280;16219;42.864;23.360;2023-02-11T09:58:25;97394.06;;;0.40;86.68
29169;BME280;16219;42.864;23.360;2023-02-11T10:01:00;97388.69;;;0.35;85.81
29169;BME280;16219;42.864;23.360;2023-02-11T10:03:54;97385.28;;;0.41;83.36
29169;BME280;16219;42.864;23.360;2023-02-11T10:06:37;97380.63;;;0.49;85.24
29169;BME280;16219;42.864;23.360;2023-02-11T10:09:24;97374.19;;;0.59;83.56
29169;BME280;16219;42.864;23.360;2023-02-11T10:12:01;97358.97;;;0.69;85.15
29169;BME280;16219;42.864;23.360;2023-02-11T10:14:43;97353.84;;;0.94;82.95
29169;BME280;16219;42.864;23.360;2023-02-11T10:17:19;97345.97;;;1.00;83.62
29169;BME280;16219;42.864;23.360;2023-02-11T10:19:59;97333.41;;;1.22;81.10
29169;BME280;16219;42.864;23.360;2023-02-11T10:22:32;97337.78;;;1.29;78.05
29169;BME280;16219;42.864;23.360;2023-02-11T10:25:16;97326.69;;;1.15;75.80
29169;BME280;16219;42.864;23.360;2023-02-11T10:27:44;97319.69;;;1.15;77.69
29169;BME280;16219;42.864;23.360;2023-02-11T10:30:20;97308.84;;;1.18;83.46
29169;BME280;16219;42.864;23.360;2023-02-11T10:32:51;97296.88;;;1.17;77.65
29169;BME280;16219;42.864;23.360;2023-02-11T10:35:22;97298.34;;;1.32;83.89
29169;BME280;16219;42.864;23.360;2023-02-11T10:37:52;97292.59;;;1.48;80.33
29169;BME280;16219;42.864;23.360;2023-02-11T10:40:22;97274.19;;;1.49;79.90
29169;BME280;16219;42.864;23.360;2023-02-11T10:42:52;97288.00;;;1.68;75.98
29169;BME280;16219;42.864;23.360;2023-02-11T10:45:24;97280.69;;;1.77;76.17
29169;BME280;16219;42.864;23.360;2023-02-11T10:47:53;97274.13;;;1.74;75.80
29169;BME280;16219;42.864;23.360;2023-02-11T10:50:23;97272.31;;;1.93;71.95
29169;BME280;16219;42.864;23.360;2023-02-11T10:52:50;97260.75;;;1.89;73.40
29169;BME280;16219;42.864;23.360;2023-02-11T10:55:25;97254.97;;;1.87;74.21
29169;BME280;16219;42.864;23.360;2023-02-11T10:57:57;97252.22;;;2.00;76.46
29169;BME280;16219;42.864;23.360;2023-02-11T11:00:33;97253.78;;;2.02;72.54
29169;BME280;16219;42.864;23.360;2023-02-11T11:03:04;97231.09;;;2.09;69.97
29169;BME280;16219;42.864;23.360;2023-02-11T11:05:35;97242.66;;;2.24;70.20
29169;BME280;16219;42.864;23.360;2023-02-11T11:08:05;97239.00;;;2.44;70.27
29169;BME280;16219;42.864;23.360;2023-02-11T11:10:38;97217.38;;;2.43;71.99
29169;BME280;16219;42.864;23.360;2023-02-11T11:13:29;97227.28;;;2.65;69.01
29169;BME280;16219;42.864;23.360;2023-02-11T11:16:20;97231.25;;;2.67;68.67
29169;BME280;16219;42.864;23.360;2023-02-11T11:18:48;97219.03;;;2.68;67.77
29169;BME280;16219;42.864;23.360;2023-02-11T11:21:19;97218.13;;;2.74;65.48
29169;BME280;16219;42.864;23.360;2023-02-11T11:23:50;97220.41;;;2.82;65.04
29169;BME280;16219;42.864;23.360;2023-02-11T11:26:18;97218.94;;;2.86;65.16
29169;BME280;16219;42.864;23.360;2023-02-11T11:28:54;97211.56;;;2.95;65.94
29169;BME280;16219;42.864;23.360;2023-02-11T11:31:24;97204.75;;;3.06;64.28
29169;BME280;16219;42.864;23.360;2023-02-11T11:33:55;97212.47;;;3.12;63.30
29169;BME280;16219;42.864;23.360;2023-02-11T11:36:32;97214.84;;;3.25;61.20
29169;BME280;16219;42.864;23.360;2023-02-11T11:39:02;97207.38;;;3.17;60.33
29169;BME280;16219;42.864;23.360;2023-02-11T11:41:33;97201.13;;;3.30;60.27
29169;BME280;16219;42.864;23.360;2023-02-11T11:44:11;97186.59;;;3.34;59.49
29169;BME280;16219;42.864;23.360;2023-02-11T11:46:43;97187.63;;;3.33;58.79
29169;BME280;16219;42.864;23.360;2023-02-11T11:49:19;97177.19;;;3.45;59.77
29169;BME280;16219;42.864;23.360;2023-02-11T11:51:55;97177.72;;;3.47;59.40
29169;BME280;16219;42.864;23.360;2023-02-11T11:54:26;97165.13;;;3.56;58.60
29169;BME280;16219;42.864;23.360;2023-02-11T11:56:59;97167.25;;;3.70;58.50
29169;BME280;16219;42.864;23.360;2023-02-11T11:59:29;97154.97;;;3.71;58.27
29169;BME280;16219;42.864;23.360;2023-02-11T12:02:14;97158.81;;;3.80;57.66
29169;BME280;16219;42.864;23.360;2023-02-11T12:05:00;97155.81;;;3.88;57.50
29169;BME280;16219;42.864;23.360;2023-02-11T12:07:49;97152.09;;;3.84;57.19
29169;BME280;16219;42.864;23.360;2023-02-11T12:10:38;97154.56;;;3.91;56.57
29169;BME280;16219;42.864;23.360;2023-02-11T12:13:18;97144.84;;;4.03;55.63
29169;BME280;16219;42.864;23.360;2023-02-11T12:15:56;97133.41;;;4.04;55.77
29169;BME280;16219;42.864;23.360;2023-02-11T12:18:39;97127.94;;;4.06;54.55
29169;BME280;16219;42.864;23.360;2023-02-11T12:21:21;97121.06;;;3.99;54.89
29169;BME280;16219;42.864;23.360;2023-02-11T12:24:01;97121.34;;;4.03;54.95
29169;BME280;16219;42.864;23.360;2023-02-11T12:26:37;97110.44;;;4.06;54.53
29169;BME280;16219;42.864;23.360;2023-02-11T12:29:16;97112.00;;;4.07;54.40
29169;BME280;16219;42.864;23.360;2023-02-11T12:31:56;97113.47;;;4.15;55.40
29169;BME280;16219;42.864;23.360;2023-02-11T12:34:40;97107.13;;;4.28;53.38
29169;BME280;16219;42.864;23.360;2023-02-11T12:37:15;97107.91;;;4.28;52.99
29169;BME280;16219;42.864;23.360;2023-02-11T12:39:49;97110.31;;;4.30;52.76
29169;BME280;16219;42.864;23.360;2023-02-11T12:42:29;97108.41;;;4.25;52.93
29169;BME280;16219;42.864;23.360;2023-02-11T12:45:22;97099.63;;;4.31;50.64
29169;BME280;16219;42.864;23.360;2023-02-11T12:48:16;97095.75;;;4.34;50.99
29169;BME280;16219;42.864;23.360;2023-02-11T12:50:54;97086.88;;;4.18;50.33
29169;BME280;16219;42.864;23.360;2023-02-11T12:53:43;97094.94;;;4.33;51.36
29169;BME280;16219;42.864;23.360;2023-02-11T12:56:17;97095.34;;;4.25;50.53
29169;BME280;16219;42.864;23.360;2023-02-11T12:58:49;97084.19;;;4.30;50.54
29169;BME280;16219;42.864;23.360;2023-02-11T13:01:20;97082.97;;;4.37;50.62
29169;BME280;16219;42.864;23.360;2023-02-11T13:03:53;97074.53;;;4.30;49.37
29169;BME280;16219;42.864;23.360;2023-02-11T13:06:26;97072.94;;;4.29;49.00
29169;BME280;16219;42.864;23.360;2023-02-11T13:08:59;97073.41;;;4.26;49.94
29169;BME280;16219;42.864;23.360;2023-02-11T13:11:31;97076.44;;;4.18;49.26
29169;BME280;16219;42.864;23.360;2023-02-11T13:14:04;97065.00;;;4.24;50.36
29169;BME280;16219;42.864;23.360;2023-02-11T13:16:35;97070.88;;;4.31;49.62
29169;BME280;16219;42.864;23.360;2023-02-11T13:19:16;97065.97;;;4.35;48.79
29169;BME280;16219;42.864;23.360;2023-02-11T13:21:52;97067.81;;;4.34;47.61